• Join FlightAware (Why Join?)
  • Login
  • US Flag 
12:50AM EDT


 

Airport Tracker/Info


-or-


 

Live Flight TrackerFlight Track Log ✈ CCA1257 ✈ 07-Oct-2013 ✈ ZLIC / INC - ZSPD / PVG

Flight Track Log - Related Links

Times and Time Zones

All times are in EDT time to prevent confusion due to time zone crossing. See the CCA1257 flight status page for this flight to view local times or setup timezone preferences in your user account.

Time Position Orientation Groundspeed Altitude Reporting Facility
EDT Latitude Longitude Course Direction KTS MPH feet Rate Location/Type
12:42AM 38.1204 106.9416 115° Southeast  Level Estimated
12:43AM 38.0695 107.0782 115° Southeast  Level Estimated
12:44AM 38.0183 107.2147 115° Southeast  Level Estimated
12:45AM 37.9670 107.3509 115° Southeast  Level Estimated
12:46AM 37.9156 107.4869 116° Southeast  Level Estimated
12:47AM 37.8640 107.6227 116° Southeast  Level Estimated
12:48AM 37.8122 107.7584 116° Southeast  Level Estimated
12:49AM 37.7603 107.8939 116° Southeast  Level Estimated
12:50AM 37.7082 108.0291 116° Southeast  Level Estimated
12:51AM 37.6560 108.1642 116° Southeast  Level Estimated
12:52AM 37.6036 108.2991 116° Southeast  Level Estimated
12:53AM 37.5510 108.4338 116° Southeast  Level Estimated
12:54AM 37.4983 108.5683 116° Southeast  Level Estimated
12:55AM 37.4455 108.7026 116° Southeast  Level Estimated
12:56AM 37.3925 108.8367 116° Southeast  Level Estimated
12:57AM 37.3394 108.9707 116° Southeast  Level Estimated
12:58AM 37.2861 109.1044 117° Southeast  Level Estimated
12:59AM 37.2326 109.2380 117° Southeast  Level Estimated
01:00AM 37.1790 109.3714 117° Southeast  Level Estimated
01:01AM 37.1253 109.5045 117° Southeast  Level Estimated
01:02AM 37.0714 109.6375 117° Southeast  Level Estimated
01:03AM 37.0173 109.7703 117° Southeast  Level Estimated
01:04AM 36.9631 109.9029 117° Southeast  Level Estimated
01:05AM 36.9088 110.0354 117° Southeast  Level Estimated
01:06AM 36.8543 110.1676 117° Southeast  Level Estimated
01:07AM 36.7997 110.2997 117° Southeast  Level Estimated
01:08AM 36.7449 110.4315 117° Southeast  Level Estimated
01:09AM 36.6900 110.5632 117° Southeast  Level Estimated
01:10AM 36.6349 110.6947 118° Southeast  Level Estimated
01:11AM 36.5797 110.8260 118° Southeast  Level Estimated
01:12AM 36.5243 110.9570 118° Southeast  Level Estimated
01:13AM 36.4688 111.0880 118° Southeast  Level Estimated
01:14AM 36.4132 111.2187 118° Southeast  Level Estimated
01:15AM 36.3574 111.3492 118° Southeast  Level Estimated
01:16AM 36.3015 111.4796 118° Southeast  Level Estimated
01:17AM 36.2454 111.6098 118° Southeast  Level Estimated
01:18AM 36.1892 111.7397 118° Southeast  Level Estimated
01:19AM 36.1329 111.8695 118° Southeast  Level Estimated
01:20AM 36.0764 111.9991 118° Southeast  Level Estimated
01:21AM 36.0197 112.1286 118° Southeast  Level Estimated
01:22AM 35.9630 112.2578 118° Southeast  Level Estimated
01:23AM 35.9061 112.3868 119° Southeast  Level Estimated
01:24AM 35.8490 112.5157 119° Southeast  Level Estimated
01:25AM 35.7918 112.6444 119° Southeast  Level Estimated
01:26AM 35.7345 112.7729 119° Southeast  Level Estimated
01:27AM 35.6771 112.9012 119° Southeast  Level Estimated
01:28AM 35.6195 113.0293 119° Southeast  Level Estimated
01:29AM 35.5618 113.1572 119° Southeast  Level Estimated
01:30AM 35.5039 113.2850 119° Southeast  Level Estimated
01:31AM 35.4459 113.4126 119° Southeast  Level Estimated
01:32AM 35.3878 113.5400 119° Southeast  Level Estimated
01:33AM 35.3295 113.6672 119° Southeast  Level Estimated
01:34AM 35.2711 113.7942 119° Southeast  Level Estimated
01:35AM 35.2126 113.9210 119° Southeast  Level Estimated
01:36AM 35.1539 114.0477 120° Southeast  Level Estimated
01:37AM 35.0951 114.1741 120° Southeast  Level Estimated
01:38AM 35.0362 114.3004 120° Southeast  Level Estimated
01:39AM 34.9772 114.4265 120° Southeast  Level Estimated
01:40AM 34.9180 114.5525 120° Southeast  Level Estimated
01:41AM 34.8587 114.6782 120° Southeast  Level Estimated
01:42AM 34.7993 114.8038 120° Southeast  Level Estimated
01:43AM 34.7397 114.9291 120° Southeast  Level Estimated
01:44AM 34.6800 115.0543 120° Southeast  Level Estimated
01:45AM 34.6202 115.1794 120° Southeast  Level Estimated
01:46AM 34.5602 115.3042 120° Southeast  Level Estimated
01:47AM 34.5001 115.4289 120° Southeast  Level Estimated
01:48AM 34.4399 115.5533 120° Southeast  Level Estimated
01:49AM 34.3796 115.6776 120° Southeast  Level Estimated
01:50AM 34.3191 115.8018 121° Southeast  Level Estimated
01:51AM 34.2585 115.9257 121° Southeast  Level Estimated
01:52AM 34.1978 116.0495 121° Southeast  Level Estimated
01:53AM 34.1370 116.1730 121° Southeast  Level Estimated
01:54AM 34.0760 116.2964 121° Southeast  Level Estimated
01:55AM 34.0150 116.4197 121° Southeast  Level Estimated
01:56AM 33.9538 116.5427 121° Southeast  Level Estimated
01:57AM 33.8924 116.6656 121° Southeast  Level Estimated
01:58AM 33.8310 116.7883 121° Southeast  Level Estimated
01:59AM 33.7694 116.9108 121° Southeast  Level Estimated
02:00AM 33.7077 117.0332 121° Southeast  Level Estimated
02:01AM 33.6459 117.1553 121° Southeast  Level Estimated
02:02AM 33.5840 117.2773 121° Southeast  Level Estimated
02:03AM 33.5219 117.3991 121° Southeast  Level Estimated
02:04AM 33.4598 117.5208 121° Southeast  Level Estimated
02:05AM 33.3975 117.6423 122° Southeast  Level Estimated
02:06AM 33.3351 117.7635 122° Southeast  Level Estimated
02:07AM 33.2726 117.8847 122° Southeast  Level Estimated
02:08AM 33.2099 118.0056 122° Southeast  Level Estimated
02:09AM 33.1472 118.1264 122° Southeast  Level Estimated
02:10AM 33.0843 118.2470 122° Southeast  Level Estimated
02:11AM 33.0213 118.3674 122° Southeast  Level Estimated
02:12AM 32.9582 118.4877 122° Southeast  Level Estimated
02:13AM 32.8950 118.6077 122° Southeast  Level Estimated
02:14AM 32.8317 118.7277 122° Southeast  Level Estimated
02:15AM 32.7682 118.8474 122° Southeast  Level Estimated
02:16AM 32.7047 118.9670 122° Southeast  Level Estimated
02:17AM 32.6410 119.0864 122° Southeast  Level Estimated
02:18AM 32.5772 119.2056 122° Southeast  Level Estimated
02:19AM 32.5133 119.3247 122° Southeast  Level Estimated
02:20AM 32.4493 119.4436 123° Southeast  Level Estimated
02:21AM 32.3852 119.5623 123° Southeast  Level Estimated
02:22AM 32.3209 119.6808 123° Southeast  Level Estimated
02:23AM 32.2566 119.7992 123° Southeast  Level Estimated
02:24AM 32.1921 119.9174 123° Southeast  Level Estimated
02:25AM 32.1276 120.0355 123° Southeast  Level Estimated
02:26AM 32.0629 120.1534 123° Southeast  Level Estimated
02:27AM 31.9981 120.2711 123° Southeast  Level Estimated
02:28AM 31.9332 120.3886 123° Southeast  Level Estimated
02:29AM 31.8682 120.5060 123° Southeast  Level Estimated
02:30AM 31.8031 120.6232 123° Southeast  Level Estimated
02:31AM 31.7379 120.7403 123° Southeast  Level Estimated
02:32AM 31.6726 120.8572 123° Southeast  Level Estimated
02:33AM 31.6072 120.9739 123° Southeast  Level Estimated
02:34AM 31.5416 121.0904 123° Southeast  Level Estimated
02:35AM 31.4760 121.2068 123° Southeast  Level Estimated
02:36AM 31.4102 121.3231 124° Southeast  Level Estimated
02:37AM 31.3444 121.4391 124° Southeast  Level Estimated
02:38AM 31.2785 121.5551 124° Southeast  Level Estimated
02:39AM 31.2124 121.6708 124° Southeast  Level Estimated
02:40AM 31.1462 121.7864 124° Southeast  Level Estimated
02:41AM 31.1428 121.7924 124° Southeast  Level Estimated
02:42AM 31.1428 121.7924 221° Southwest  Level Estimated
02:43AM 31.1428 121.7924 221° Southwest  Level Estimated
02:44AM 31.1428 121.7924 221° Southwest  Level Estimated
02:44AM 31.5720 120.3870 221° Southwest 339 390 19,700  Level FlightAware
02:45AM 31.1428 121.7924 221° Southwest  Level Estimated
02:45AM 31.5550 120.4460 109° East 343 395 19,700  Level FlightAware
02:45AM 31.5350 120.5110 110° East 340 391 19,700  Level FlightAware
02:46AM 31.5200 120.5640 108° East 340 391 19,700 -240 Level FlightAware
02:46AM 31.5000 120.6060 119° Southeast 367 422 19,500 -1,800 Descending FlightAware
02:47AM 31.4690 120.6610 123° Southeast 328 377 18,100 -1,380 Descending FlightAware
02:47AM 31.4410 120.7100 124° Southeast 330 380 17,900 -1,740 Descending FlightAware
02:48AM 31.4090 120.7640 125° Southeast 324 373 16,100 -2,100 Descending FlightAware
02:49AM 31.3870 120.8050 122° Southeast 320 368 14,800 -840 Descending FlightAware
02:50AM 31.3630 120.8530 120° Southeast 320 368 14,800 -660 Level FlightAware
02:51AM 31.3060 120.9850 117° Southeast 314 361 13,800 -660 Descending FlightAware
02:51AM 31.2850 121.0370 115° Southeast 314 361 13,800  Level FlightAware
02:51AM 31.2940 121.0610 66° East 315 362 13,800  Level FlightAware
02:52AM 31.3060 120.9850 280° West 313 360 13,800 -240 Level FlightAware
02:52AM 31.2850 121.1490 98° East 316 364 13,600 -840 Descending FlightAware
02:53AM 31.2770 121.2090 99° East 308 354 12,900 -660 Descending FlightAware
02:53AM 31.2700 121.2740 97° East 320 368 12,800 -120 Descending FlightAware
02:54AM 31.2600 121.3170 105° East 313 360 12,800  Level FlightAware
02:54AM 31.2510 121.3310 127° Southeast 311 358 12,800 -540 Level FlightAware
02:54AM 31.2380 121.3420 144° Southeast 311 358 12,600 -1,260 Descending FlightAware
02:54AM 31.2210 121.3490 161° South 313 360 12,300 -1,260 Descending FlightAware
02:55AM 31.1800 121.3480 181° South 317 365 11,800 -660 Descending FlightAware
02:55AM 31.1510 121.3560 167° South 313 360 11,800  Level FlightAware
02:55AM 31.1440 121.3630 139° Southeast 311 358 11,800  Level FlightAware
02:56AM 31.1270 121.3930 123° Southeast 307 353 11,800 -240 Level FlightAware
02:56AM 31.1250 121.4090 98° East 305 351 11,700 -1,500 Descending FlightAware
02:56AM 31.1270 121.4630 88° East 292 336 10,700 -1,800 Descending FlightAware
02:57AM 31.1210 121.5250 96° East 267 307 9,500 -1,920 Descending FlightAware
02:57AM 31.1110 121.5510 114° Southeast 263 303 8,800 -2,100 Descending FlightAware
02:58AM 31.1000 121.5770 116° Southeast 265 305 8,100 -1,380 Descending FlightAware
02:58AM 31.0900 121.6000 117° Southeast 254 292 7,900 -600 Descending FlightAware
02:58AM 31.0780 121.6240 120° Southeast 243 280 7,700 -600 Descending FlightAware
02:59AM 31.0710 121.6310 139° Southeast 243 280 7,600 -720 Descending FlightAware
02:59AM 31.0540 121.6430 149° Southeast 227 261 7,400 -600 Descending FlightAware
02:59AM 31.0400 121.6530 149° Southeast 225 259 7,300 -540 Descending FlightAware
02:59AM 31.0220 121.6650 150° Southeast 208 239 7,100 -360 Descending FlightAware
03:00AM 31.0000 121.6800 150° Southeast 203 234 7,000 -960 Descending FlightAware
03:03AM 31.1428 121.7924 34° Northeast  Level Estimated
03:04AM 30.8660 121.8150 34° Northeast 158 182 3,100  Level FlightAware
03:04AM 30.8680 121.8360 84° East 162 186 3,100  Level FlightAware
03:05AM 30.8740 121.8520 66° East 164 189 3,100  Level FlightAware
03:05AM 30.8770 121.8550 41° Northeast 169 194 3,100  Level FlightAware
03:05AM 30.8810 121.8570 23° Northeast 180 207 3,100  Level FlightAware
03:05AM 30.8880 121.8600 20° North 185 213 3,100  Level FlightAware
03:05AM 30.9010 121.8640 15° North 185 213 3,100  Level FlightAware
03:05AM 30.9190 121.8680 11° North 180 207 3,100  Level FlightAware
03:06AM 30.9360 121.8650 351° North 201 231 3,100  Level FlightAware
03:06AM 30.9490 121.8610 345° North 201 231 3,100  Level FlightAware
03:06AM 30.9720 121.8520 341° North 201 231 3,100 -240 Level FlightAware
03:07AM 30.9860 121.8470 343° North 202 232 2,900 -960 Descending FlightAware
03:07AM 31.0110 121.8380 343° North 185 213 2,400 -1,440 Descending FlightAware
03:08AM 31.0280 121.8310 341° North 185 213 2,000 -1,080 Descending FlightAware
03:08AM 31.0430 121.8250 341° North 157 181 1,700 -780 Descending FlightAware
03:08AM 31.0570 121.8200 343° North 140 161 1,500 -720 Descending FlightAware
03:08AM 31.0670 121.8170 346° North 139 160 1,300 -360 Descending FlightAware
03:09AM 31.0840 121.8100 341° North 140 161 1,200 -780 Descending FlightAware
03:09AM 31.0990 121.8040 341° North 135 155 600 -840 Descending FlightAware
03:10AM 31.1120 121.7990 342° North 135 155 600  Level FlightAware